Time;durP1;ratioP1;P1;durP2;ratioP2;P2;SDS_P1;SDS_P2;PMS_P1;PMS_P2;Temp;Humidity;BMP_temperature;BMP_pressure;BME280_temperature;BME280_humidity;BME280_pressure;Samples;Min_cycle;Max_cycle;Signal;HPM_P1;HPM_P2
2022/09/21 00:01:11;;;;;;;3.15;1.10;;;;;;;12.10;44.51;93981.19;5030047;28;20099;-78
2022/09/21 00:03:37;;;;;;;1.30;1.20;;;;;;;11.73;44.76;93940.03;5037340;28;20025;-79
2022/09/21 00:06:17;;;;;;;1.10;1.00;;;;;;;11.92;44.69;93965.25;5029781;28;20164;-78
2022/09/21 00:08:43;;;;;;;1.95;1.48;;;;;;;12.14;44.68;93987.44;5028034;28;20106;-78
2022/09/21 00:11:20;;;;;;;2.30;1.42;;;;;;;12.30;44.68;93985.81;5059359;28;20040;-77
2022/09/21 00:13:45;;;;;;;2.20;1.52;;;;;;;12.20;45.01;93951.50;5028865;28;20021;-80
2022/09/21 00:16:11;;;;;;;1.33;1.10;;;;;;;12.43;44.62;93980.28;5027531;28;20469;-78
2022/09/21 00:18:37;;;;;;;1.08;1.00;;;;;;;12.37;44.69;93964.78;5029096;28;20025;-78
2022/09/21 00:21:09;;;;;;;3.13;1.33;;;;;;;12.51;44.74;93981.34;5029470;28;20506;-79
2022/09/21 00:23:35;;;;;;;4.78;2.30;;;;;;;12.53;44.95;93984.47;5029712;28;20032;-80
2022/09/21 00:26:09;;;;;;;3.78;2.22;;;;;;;12.34;44.85;93957.41;5025829;28;20018;-79
2022/09/21 00:28:35;;;;;;;2.92;1.30;;;;;;;12.57;44.83;93990.72;5029545;28;20052;-78
2022/09/21 00:31:06;;;;;;;2.35;1.55;;;;;;;12.50;44.82;93979.00;5026371;28;20017;-78
2022/09/21 00:33:33;;;;;;;3.25;1.60;;;;;;;12.45;45.17;93971.97;5027510;28;20033;-78
2022/09/21 00:36:10;;;;;;;1.33;1.23;;;;;;;12.45;45.13;93983.41;5026747;28;20060;-78
2022/09/21 00:38:36;;;;;;;1.50;1.35;;;;;;;12.15;45.18;93943.69;5028663;28;20033;-78
2022/09/21 00:41:03;;;;;;;1.52;1.33;;;;;;;12.38;45.41;93977.00;5060179;28;20972;-78
2022/09/21 00:43:32;;;;;;;1.88;1.77;;;;;;;12.24;45.46;93968.44;5058612;28;20017;-78
2022/09/21 00:46:05;;;;;;;1.40;1.30;;;;;;;12.24;45.76;93973.75;5027997;28;20056;-78
2022/09/21 00:48:32;;;;;;;2.15;1.42;;;;;;;12.21;45.77;93971.75;5028935;28;20568;-78
2022/09/21 00:51:03;;;;;;;2.25;1.55;;;;;;;12.02;45.84;93954.25;5029818;28;20511;-78
2022/09/21 00:53:28;;;;;;;1.83;1.42;;;;;;;11.99;46.08;93948.75;5028933;28;20021;-78
2022/09/21 00:55:56;;;;;;;2.65;1.73;;;;;;;11.89;46.27;93947.19;5029839;28;20021;-79
2022/09/21 00:58:29;;;;;;;6.35;3.85;;;;;;;11.78;46.29;93931.88;5027117;28;20017;-79
2022/09/21 01:00:58;;;;;;;8.35;4.20;;;;;;;12.04;46.27;93972.56;5030806;28;20048;-78
2022/09/21 01:03:24;;;;;;;9.38;4.70;;;;;;;11.99;46.58;93976.19;5035508;28;20028;-78
2022/09/21 01:05:49;;;;;;;8.93;5.32;;;;;;;11.75;46.56;93943.94;5024784;28;20029;-79
2022/09/21 01:08:16;;;;;;;9.63;5.43;;;;;;;11.70;46.45;93948.66;5028929;28;20032;-81
2022/09/21 01:11:01;;;;;;;12.50;5.78;;;;;;;11.65;46.50;93946.94;5028918;28;20056;-79
2022/09/21 01:13:57;;;;;;;10.27;4.68;;;;;;;11.83;46.60;93983.09;5029543;28;20778;-78
2022/09/21 01:16:32;;;;;;;8.98;4.60;;;;;;;11.78;46.77;93985.19;5028645;28;20021;-78
2022/09/21 01:19:13;;;;;;;8.60;4.38;;;;;;;11.72;46.94;93989.88;5044447;28;20511;-79
2022/09/21 01:21:55;;;;;;;7.07;3.75;;;;;;;11.68;47.05;93980.97;5058675;28;20041;-78
2022/09/21 01:24:41;;;;;;;8.88;4.43;;;;;;;11.64;46.99;93980.00;5026653;28;20052;-79
2022/09/21 01:27:40;;;;;;;6.13;4.05;;;;;;;11.61;47.17;93969.97;5028624;28;21060;-78
2022/09/21 01:30:19;;;;;;;6.28;3.67;;;;;;;11.46;47.12;93957.13;5027561;28;20374;-78
2022/09/21 01:33:26;;;;;;;8.38;4.28;;;;;;;11.48;47.42;93968.25;5026664;28;20272;-78
2022/09/21 01:36:06;;;;;;;5.25;3.72;;;;;;;11.29;47.74;93949.16;5027603;28;20060;-78
2022/09/21 01:38:37;;;;;;;9.90;2.92;;;;;;;11.12;47.73;93942.72;5028834;28;20076;-78
2022/09/21 01:41:05;;;;;;;5.65;3.03;;;;;;;11.11;47.76;93941.13;5029977;28;20029;-78
2022/09/21 01:43:37;;;;;;;3.08;2.78;;;;;;;11.00;47.81;93929.22;5029212;28;20021;-79
2022/09/21 01:46:08;;;;;;;3.92;2.17;;;;;;;10.92;47.76;93915.91;5060361;28;20029;-79
2022/09/21 01:48:39;;;;;;;2.80;2.22;;;;;;;11.18;47.77;93961.97;5028400;28;20435;-80
2022/09/21 01:51:09;;;;;;;3.17;2.00;;;;;;;11.05;48.37;93955.69;5043989;28;20385;-79
2022/09/21 01:53:43;;;;;;;2.33;2.08;;;;;;;11.10;48.00;93960.84;5027199;28;20393;-77
2022/09/21 01:56:36;;;;;;;4.10;2.10;;;;;;;10.90;47.79;93923.44;5041457;28;20025;-80
2022/09/21 01:59:27;;;;;;;2.72;1.83;;;;;;;11.02;47.98;93936.91;5027732;28;20059;-78
2022/09/21 02:01:59;;;;;;;4.13;2.65;;;;;;;10.96;47.64;93927.50;5029873;28;20021;-78
2022/09/21 02:04:25;;;;;;;3.85;2.38;;;;;;;11.08;47.92;93949.75;5026624;28;20485;-78
2022/09/21 02:06:51;;;;;;;3.03;1.83;;;;;;;11.04;47.85;93940.84;5028554;28;20040;-79
2022/09/21 02:09:17;;;;;;;1.95;1.63;;;;;;;10.87;47.64;93916.06;5028116;28;20022;-78
2022/09/21 02:11:43;;;;;;;2.60;1.90;;;;;;;11.06;47.95;93951.94;5023098;28;20523;-78
2022/09/21 02:14:21;;;;;;;4.28;2.83;;;;;;;11.07;47.67;93956.19;5030139;28;20060;-78
2022/09/21 02:17:06;;;;;;;4.20;2.90;;;;;;;11.06;47.79;93965.25;5058764;28;20013;-78
2022/09/21 02:19:53;;;;;;;14.13;8.00;;;;;;;10.89;47.68;93938.63;5028039;28;20135;-77
2022/09/21 02:22:28;;;;;;;13.82;7.88;;;;;;;11.04;47.68;93967.44;5027785;28;20449;-78
2022/09/21 02:24:56;;;;;;;;;;;;;;;10.99;47.94;93974.81;5027690;28;20025;-79
2022/09/21 02:27:40;;;;;;;12.05;6.93;;;;;;;10.63;48.06;93919.16;5033992;28;19956;-78
2022/09/21 02:30:19;;;;;;;8.05;5.57;;;;;;;10.94;47.93;93977.59;5027037;28;20108;-79
2022/09/21 02:32:49;;;;;;;8.18;4.15;;;;;;;10.82;48.16;93970.22;5030437;28;20025;-78
2022/09/21 02:35:53;;;;;;;4.40;3.22;;;;;;;10.84;48.15;93973.38;5032061;28;20389;-78
2022/09/21 02:38:30;;;;;;;4.47;2.97;;;;;;;10.64;48.38;93952.66;5031949;28;22176;-80
2022/09/21 02:41:18;;;;;;;6.80;3.28;;;;;;;10.43;48.45;93919.75;5030251;28;20061;-78
2022/09/21 02:43:53;;;;;;;3.28;2.42;;;;;;;10.76;48.01;93973.34;5032960;28;20428;-78
2022/09/21 02:46:27;;;;;;;6.40;2.80;;;;;;;10.73;47.96;93972.09;5037650;28;20040;-79
2022/09/21 02:48:58;;;;;;;2.90;2.50;;;;;;;10.67;47.98;93978.63;5030427;28;20185;-78
2022/09/21 02:51:35;;;;;;;3.80;2.90;;;;;;;10.59;48.37;93972.22;5033842;28;20431;-79
2022/09/21 02:54:03;;;;;;;2.92;2.63;;;;;;;10.61;48.18;93972.66;5031904;28;20071;-79
2022/09/21 02:56:30;;;;;;;3.50;2.90;;;;;;;10.54;48.32;93968.91;5062210;28;20667;-77
2022/09/21 02:59:00;;;;;;;3.35;2.78;;;;;;;10.51;48.37;93958.91;5030334;28;20032;-79
2022/09/21 03:01:27;;;;;;;5.13;3.08;;;;;;;10.43;48.43;93956.97;5032042;28;20018;-81
2022/09/21 03:03:53;;;;;;;2.53;2.15;;;;;;;10.47;48.40;93974.66;5030117;28;20445;-78
2022/09/21 03:06:18;;;;;;;3.42;2.78;;;;;;;10.45;48.17;93970.75;5031210;28;20090;-79
2022/09/21 03:08:43;;;;;;;2.78;2.35;;;;;;;10.23;48.41;93942.31;5030446;28;20025;-77
2022/09/21 03:11:10;;;;;;;3.00;2.50;;;;;;;10.24;48.52;93949.22;5031560;28;20044;-78
2022/09/21 03:13:36;;;;;;;3.47;2.38;;;;;;;10.31;48.49;93971.63;5033090;28;20480;-78
2022/09/21 03:16:04;;;;;;;2.30;2.10;;;;;;;10.13;48.38;93937.28;5030779;28;20028;-79
2022/09/21 03:18:30;;;;;;;3.22;2.45;;;;;;;10.33;48.52;93977.41;5032024;28;20063;-79
2022/09/21 03:20:56;;;;;;;2.88;2.42;;;;;;;10.23;48.25;93959.06;5029566;28;20132;-78
2022/09/21 03:23:21;;;;;;;3.50;2.60;;;;;;;10.30;48.48;93978.03;5030098;28;20108;-79
2022/09/21 03:25:47;;;;;;;2.35;2.10;;;;;;;10.26;48.61;93963.78;5029502;28;20512;-77
2022/09/21 03:28:14;;;;;;;4.03;1.90;;;;;;;10.18;48.57;93963.72;5031868;28;20416;-79
2022/09/21 03:30:40;;;;;;;3.03;2.38;;;;;;;10.07;48.59;93957.13;5030952;28;20542;-79
2022/09/21 03:33:05;;;;;;;2.10;1.90;;;;;;;9.95;48.71;93951.59;5037912;28;20029;-77
2022/09/21 03:35:32;;;;;;;2.75;2.38;;;;;;;9.91;48.98;93948.75;5031278;28;20400;-77
2022/09/21 03:37:59;;;;;;;2.15;1.95;;;;;;;9.95;49.34;93980.81;5062053;28;20893;-78
2022/09/21 03:40:26;;;;;;;2.67;2.17;;;;;;;9.72;49.69;93954.28;5032300;28;20021;-78
2022/09/21 03:42:52;;;;;;;2.90;2.20;;;;;;;9.86;49.36;93970.16;5028243;28;20017;-79
2022/09/21 03:45:18;;;;;;;2.55;2.28;;;;;;;9.91;49.42;93979.84;5032445;28;20084;-78
2022/09/21 03:47:43;;;;;;;1.88;1.77;;;;;;;9.81;49.37;93963.09;5029022;28;20025;-79
2022/09/21 03:50:10;;;;;;;3.78;2.03;;;;;;;9.73;49.55;93952.41;5034106;28;20059;-79
2022/09/21 03:52:36;;;;;;;1.42;1.33;;;;;;;9.51;49.47;93917.91;5031387;28;20021;-78
2022/09/21 03:55:05;;;;;;;2.75;1.30;;;;;;;9.95;49.23;93989.56;5030751;28;20030;-78
2022/09/21 03:57:31;;;;;;;1.70;1.60;;;;;;;9.97;49.49;93990.06;5028976;28;20036;-78
2022/09/21 03:59:57;;;;;;;2.00;1.42;;;;;;;9.92;49.28;93978.78;5029221;28;20048;-78
2022/09/21 04:02:22;;;;;;;5.32;2.38;;;;;;;9.97;49.74;93987.41;5030908;28;20458;-78
2022/09/21 04:04:48;;;;;;;1.15;1.05;;;;;;;9.84;49.72;93962.47;5031752;28;20053;-79
2022/09/21 04:07:14;;;;;;;2.17;1.30;;;;;;;9.86;49.82;93970.94;5031927;28;20017;-78
2022/09/21 04:09:40;;;;;;;1.73;1.25;;;;;;;9.99;50.04;93989.75;5031435;28;20029;-79
2022/09/21 04:12:06;;;;;;;2.33;1.23;;;;;;;10.03;49.73;93983.50;5029754;28;20104;-77
2022/09/21 04:14:32;;;;;;;1.48;1.30;;;;;;;9.87;50.38;93977.81;5029988;28;20103;-77
2022/09/21 04:16:58;;;;;;;1.55;1.13;;;;;;;9.97;50.23;93982.09;5028540;28;20025;-80
2022/09/21 04:19:23;;;;;;;1.65;1.20;;;;;;;10.17;50.08;93986.84;5030278;28;20298;-78
2022/09/21 04:21:50;;;;;;;2.00;1.10;;;;;;;10.01;49.96;93961.78;5029492;28;20053;-78
2022/09/21 04:24:18;;;;;;;1.80;1.17;;;;;;;10.23;49.88;93988.28;5028502;28;20025;-77
2022/09/21 04:26:44;;;;;;;1.63;1.08;;;;;;;10.29;49.58;93996.94;5029650;28;20025;-79
2022/09/21 04:29:10;;;;;;;1.88;0.98;;;;;;;10.05;49.91;93946.78;5028618;28;20025;-78
2022/09/21 04:31:36;;;;;;;1.70;1.35;;;;;;;10.30;49.55;93971.91;5028485;28;20136;-77
2022/09/21 04:34:01;;;;;;;1.50;1.30;;;;;;;10.51;49.38;93990.81;5030280;28;20021;-78
2022/09/21 04:36:28;;;;;;;2.53;1.00;;;;;;;10.50;49.23;93999.88;5028337;28;20021;-77
2022/09/21 04:38:53;;;;;;;1.17;1.08;;;;;;;10.33;48.96;93961.44;5030841;28;20025;-79
2022/09/21 04:41:19;;;;;;;1.05;0.90;;;;;;;10.52;48.97;93976.41;5026966;28;20050;-78
2022/09/21 04:43:47;;;;;;;0.88;0.88;;;;;;;10.61;48.54;93993.19;5031533;28;20020;-78
2022/09/21 04:46:15;;;;;;;1.17;0.90;;;;;;;10.56;48.79;93988.75;5028821;28;20027;-78
2022/09/21 04:48:41;;;;;;;1.58;1.00;;;;;;;10.66;48.92;93985.81;5027056;28;20568;-79
2022/09/21 04:51:08;;;;;;;1.42;0.90;;;;;;;10.75;48.78;93980.56;5029333;28;20029;-78
2022/09/21 04:53:35;;;;;;;1.10;1.00;;;;;;;10.21;48.83;93929.38;5028714;28;20025;-77
2022/09/21 04:56:02;;;;;;;1.23;0.80;;;;;;;10.52;48.37;93965.75;5028213;28;20349;-78
2022/09/21 04:58:27;;;;;;;2.53;1.10;;;;;;;10.63;48.72;93973.16;5027945;28;20028;-78
2022/09/21 05:00:54;;;;;;;1.20;0.70;;;;;;;10.74;48.60;93982.44;5026818;28;20025;-77
2022/09/21 05:03:20;;;;;;;0.95;0.70;;;;;;;10.96;48.28;93992.16;5028330;28;20392;-78
2022/09/21 05:05:47;;;;;;;0.75;0.75;;;;;;;10.62;47.61;93936.22;5028645;28;20017;-78
2022/09/21 05:08:13;;;;;;;2.80;0.60;;;;;;;10.63;47.43;93924.50;5028321;28;20496;-78
2022/09/21 05:10:38;;;;;;;1.10;0.80;;;;;;;11.09;46.65;93985.94;5029012;28;20152;-79
2022/09/21 05:13:04;;;;;;;0.80;0.80;;;;;;;10.95;46.97;93947.25;5027583;28;20021;-78
2022/09/21 05:15:29;;;;;;;7.22;1.77;;;;;;;10.89;47.29;93959.91;5028734;28;20040;-79
2022/09/21 05:17:55;;;;;;;4.82;2.88;;;;;;;10.85;47.84;94001.53;5028291;28;20480;-77
2022/09/21 05:20:20;;;;;;;6.18;1.30;;;;;;;10.68;48.22;93958.91;5029446;28;20439;-77
2022/09/21 05:22:45;;;;;;;1.23;1.00;;;;;;;10.71;48.75;93996.31;5027257;28;20025;-78
2022/09/21 05:25:11;;;;;;;0.85;0.70;;;;;;;10.44;48.85;93985.13;5037462;28;20033;-77
2022/09/21 05:27:36;;;;;;;2.10;1.95;;;;;;;10.09;49.89;93950.41;5027216;28;20115;-79
2022/09/21 05:30:03;;;;;;;1.88;0.93;;;;;;;10.43;49.63;93976.38;5035353;28;20025;-79
2022/09/21 05:32:46;;;;;;;5.05;1.00;;;;;;;10.67;49.83;94002.56;5025626;28;20067;-77
2022/09/21 05:35:25;;;;;;;2.10;0.90;;;;;;;10.54;49.39;93992.84;5029269;28;20033;-77
2022/09/21 05:37:50;;;;;;;2.45;1.10;;;;;;;10.53;50.00;94000.03;5026305;28;20025;-78
2022/09/21 05:40:16;;;;;;;1.63;1.23;;;;;;;10.49;49.78;93977.81;5028719;28;20028;-77
2022/09/21 05:42:42;;;;;;;1.90;1.17;;;;;;;10.56;50.30;93993.31;5026658;28;20456;-78
2022/09/21 05:45:13;;;;;;;1.80;1.10;;;;;;;10.61;50.08;93998.50;5026810;28;20044;-79
2022/09/21 05:47:47;;;;;;;4.75;0.85;;;;;;;10.43;50.17;93994.19;5025869;28;20104;-77
2022/09/21 05:50:27;;;;;;;2.85;0.80;;;;;;;10.44;50.60;93977.94;5029122;28;20123;-77
2022/09/21 05:53:15;;;;;;;1.67;1.08;;;;;;;10.29;50.20;93938.44;5029634;28;20508;-78
2022/09/21 05:55:59;;;;;;;1.70;1.10;;;;;;;10.70;49.92;93996.66;5057709;28;20297;-77
2022/09/21 05:58:42;;;;;;;3.40;1.03;;;;;;;10.75;49.97;93996.50;5057387;28;20036;-78
2022/09/21 06:01:37;;;;;;;2.13;0.98;;;;;;;10.87;49.83;93999.34;5027674;28;20882;-76
2022/09/21 06:04:03;;;;;;;1.40;1.00;;;;;;;10.76;48.65;94000.72;5026197;28;20400;-78
2022/09/21 06:06:28;;;;;;;0.80;0.80;;;;;;;10.91;48.94;94002.94;5029060;28;20030;-78
2022/09/21 06:08:54;;;;;;;1.23;0.90;;;;;;;10.70;47.39;93978.03;5031876;28;20032;-78
2022/09/21 06:11:19;;;;;;;1.13;0.77;;;;;;;10.84;48.08;93983.22;5031944;28;20465;-77
2022/09/21 06:13:45;;;;;;;1.33;0.90;;;;;;;10.94;47.22;93998.91;5016893;28;20072;-79
2022/09/21 06:16:10;;;;;;;2.97;0.80;;;;;;;10.82;47.61;93996.03;5027046;28;20017;-78
2022/09/21 06:18:38;;;;;;;1.35;0.80;;;;;;;10.61;47.74;93985.97;5021537;28;20055;-79
2022/09/21 06:21:04;;;;;;;2.90;0.80;;;;;;;10.69;48.06;93992.41;5026986;28;20166;-78
2022/09/21 06:23:29;;;;;;;9.40;1.95;;;;;;;10.78;47.14;93989.78;5029835;28;20539;-80
2022/09/21 06:25:55;;;;;;;1.52;0.80;;;;;;;10.56;47.73;93988.75;5027147;28;20120;-78
2022/09/21 06:28:20;;;;;;;1.20;0.80;;;;;;;10.45;47.48;93973.41;5023652;28;20560;-80
2022/09/21 06:30:53;;;;;;;2.15;1.00;;;;;;;10.31;48.40;94019.47;5023702;28;20052;-80
2022/09/21 06:33:22;;;;;;;3.92;1.05;;;;;;;10.52;48.70;94019.72;5025571;28;20021;-78
2022/09/21 06:35:52;;;;;;;0.98;0.85;;;;;;;10.16;48.17;93974.69;5024233;28;20040;-79
2022/09/21 06:38:17;;;;;;;0.95;0.80;;;;;;;10.38;48.12;94010.28;5027523;28;20087;-79
2022/09/21 06:40:43;;;;;;;0.70;0.70;;;;;;;10.54;47.97;94027.41;5034749;28;20020;-78
2022/09/21 06:43:08;;;;;;;3.33;0.77;;;;;;;10.61;48.24;94017.88;5025430;28;20036;-78
2022/09/21 06:45:34;;;;;;;0.88;0.80;;;;;;;10.65;48.28;94000.25;5022345;28;20059;-78
2022/09/21 06:47:59;;;;;;;1.05;0.85;;;;;;;10.73;48.24;94020.75;5025573;28;20492;-78
2022/09/21 06:50:25;;;;;;;0.80;0.70;;;;;;;10.87;47.94;94035.81;5026649;28;20056;-78
2022/09/21 06:52:50;;;;;;;0.90;0.90;;;;;;;10.74;48.47;93981.63;5026136;28;20505;-79
2022/09/21 06:55:16;;;;;;;1.40;0.90;;;;;;;11.11;48.07;94031.63;5029752;28;20473;-77
2022/09/21 06:57:42;;;;;;;0.80;0.80;;;;;;;11.15;47.86;94019.28;5029673;28;20128;-77
2022/09/21 07:00:10;;;;;;;1.80;0.98;;;;;;;10.86;47.68;93981.81;5029428;28;20403;-77
2022/09/21 07:02:35;;;;;;;5.93;1.67;;;;;;;11.05;48.86;93995.63;5028325;28;20104;-80
2022/09/21 07:05:01;;;;;;;1.10;0.80;;;;;;;11.47;47.87;94027.94;5029331;28;20030;-76
2022/09/21 07:07:30;;;;;;;9.50;3.90;;;;;;;11.41;48.43;94007.88;5028387;28;20506;-76
2022/09/21 07:10:00;;;;;;;8.00;4.68;;;;;;;11.40;48.36;94023.06;5025644;28;20041;-77
2022/09/21 07:12:33;;;;;;;3.65;1.77;;;;;;;11.42;47.94;94012.09;5056788;28;20723;-77
2022/09/21 07:14:59;;;;;;;3.28;1.08;;;;;;;11.48;48.62;94034.81;5024465;28;20112;-76
2022/09/21 07:17:25;;;;;;;2.17;1.20;;;;;;;11.45;48.72;94040.75;5025859;28;20059;-76
2022/09/21 07:19:50;;;;;;;8.00;3.20;;;;;;;11.36;48.79;94039.97;5029837;28;20025;-78
2022/09/21 07:22:15;;;;;;;3.05;1.27;;;;;;;11.09;48.86;94030.41;5041366;28;20056;-76
2022/09/21 07:24:41;;;;;;;1.55;1.10;;;;;;;11.20;49.40;94038.88;5042173;28;20087;-79
2022/09/21 07:27:06;;;;;;;2.22;1.20;;;;;;;10.87;49.64;93970.06;5027557;28;20362;-78
2022/09/21 07:29:31;;;;;;;1.85;1.13;;;;;;;11.24;49.68;94000.66;5025586;28;20370;-79
2022/09/21 07:31:57;;;;;;;5.05;1.67;;;;;;;11.54;49.21;94044.28;5026177;28;20693;-78
2022/09/21 07:34:22;;;;;;;1.15;1.05;;;;;;;11.29;49.15;94005.84;5028260;28;20056;-77
2022/09/21 07:36:48;;;;;;;1.77;1.40;;;;;;;11.32;49.42;94031.03;5035333;28;20022;-77
2022/09/21 07:39:13;;;;;;;2.38;1.48;;;;;;;11.26;49.55;94026.97;5026150;28;20433;-78
2022/09/21 07:41:38;;;;;;;1.42;1.20;;;;;;;11.10;49.88;94014.09;5029863;28;20493;-78
2022/09/21 07:44:04;;;;;;;1.35;1.10;;;;;;;11.00;49.92;94027.69;5027082;28;20036;-77
2022/09/21 07:46:30;;;;;;;3.38;1.42;;;;;;;11.21;49.84;94051.84;5028494;28;20032;-80
2022/09/21 07:48:56;;;;;;;1.40;1.30;;;;;;;11.18;49.90;94052.50;5027400;28;20584;-78
2022/09/21 07:51:22;;;;;;;1.65;1.38;;;;;;;11.28;50.90;94062.06;5028672;28;20072;-77
2022/09/21 07:53:53;;;;;;;2.95;1.90;;;;;;;11.34;50.22;94044.84;5024788;28;20447;-78
2022/09/21 07:56:19;;;;;;;3.47;2.22;;;;;;;11.30;49.82;94020.69;5028548;28;20021;-77
2022/09/21 08:01:29;;;;;;;4.55;1.67;;;;;;;11.32;49.25;94055.78;5029206;28;20227;-78
2022/09/21 08:03:57;;;;;;;3.65;1.67;;;;;;;11.17;49.83;94022.41;5026349;28;20064;-78
2022/09/21 08:06:25;;;;;;;1.65;1.55;;;;;;;11.27;49.30;94013.34;5025565;28;20037;-78
2022/09/21 08:08:51;;;;;;;1.38;1.27;;;;;;;11.05;49.06;93978.88;5029677;28;20571;-77
2022/09/21 08:11:19;;;;;;;5.72;2.83;;;;;;;11.54;49.16;94036.28;5031712;28;20112;-78
2022/09/21 08:13:45;;;;;;;10.10;3.13;;;;;;;11.60;48.70;94045.66;5043214;28;20022;-78
2022/09/21 08:16:10;;;;;;;3.67;2.30;;;;;;;11.59;48.76;94047.53;5028804;28;20409;-77
2022/09/21 08:18:37;;;;;;;2.33;1.67;;;;;;;11.55;48.62;94048.47;5028554;28;20025;-78
2022/09/21 08:21:03;;;;;;;2.88;1.38;;;;;;;11.71;48.46;94060.25;5026163;28;20041;-79
2022/09/21 08:23:29;;;;;;;2.47;1.10;;;;;;;11.47;48.31;94025.25;5026400;28;20040;-79
2022/09/21 08:26:02;;;;;;;1.88;1.48;;;;;;;11.70;48.36;94053.34;5026093;28;20508;-79
2022/09/21 08:28:32;;;;;;;4.22;2.85;;;;;;;11.67;48.59;94051.31;5058118;28;20035;-78
2022/09/21 08:31:07;;;;;;;1.67;1.58;;;;;;;11.63;48.69;94034.41;5028216;28;20025;-77
2022/09/21 08:33:32;;;;;;;2.13;1.35;;;;;;;11.75;48.24;94039.88;5028867;28;20027;-77
2022/09/21 08:35:59;;;;;;;2.00;1.27;;;;;;;11.52;48.01;94003.84;5029248;28;20018;-78
2022/09/21 08:38:26;;;;;;;2.85;1.60;;;;;;;11.92;47.96;94036.41;5027629;28;20489;-78
2022/09/21 08:40:52;;;;;;;1.75;1.65;;;;;;;12.10;47.94;94034.50;5020855;28;20056;-78
2022/09/21 08:43:30;;;;;;;1.45;1.35;;;;;;;12.06;47.75;94038.91;5030724;28;20411;-78
2022/09/21 08:45:58;;;;;;;1.40;1.30;;;;;;;11.94;47.62;94037.66;5028665;28;20028;-78
2022/09/21 08:48:28;;;;;;;2.65;1.52;;;;;;;11.98;47.03;94030.59;5029611;28;20040;-77
2022/09/21 08:50:58;;;;;;;1.35;1.25;;;;;;;11.63;47.14;94009.63;5056418;28;20037;-78
2022/09/21 08:53:33;;;;;;;2.63;2.25;;;;;;;11.81;47.77;94009.31;5022723;28;20033;-78
2022/09/21 08:56:00;;;;;;;1.73;1.30;;;;;;;11.97;47.48;94023.72;5041469;28;20029;-78
2022/09/21 08:58:27;;;;;;;2.38;1.35;;;;;;;11.66;46.75;93982.34;5043751;28;20025;-79
2022/09/21 09:01:07;;;;;;;1.40;1.00;;;;;;;12.06;46.36;94028.22;5027966;28;20087;-78
2022/09/21 09:03:32;;;;;;;3.83;1.70;;;;;;;12.08;46.59;94026.03;5029068;28;20109;-78
2022/09/21 09:06:28;;;;;;;1.70;1.30;;;;;;;12.14;46.14;94022.09;5024813;28;20032;-77
2022/09/21 09:09:14;;;;;;;1.52;1.00;;;;;;;11.85;46.57;93980.91;5021047;28;20465;-77
2022/09/21 09:12:00;;;;;;;1.20;1.10;;;;;;;12.02;46.51;93980.91;5023478;28;20417;-79
2022/09/21 09:14:43;;;;;;;2.47;1.45;;;;;;;12.36;46.81;94006.69;5026142;28;20036;-78
2022/09/21 09:17:22;;;;;;;2.88;2.40;;;;;;;12.38;46.05;94011.66;5024272;28;20128;-78
2022/09/21 09:19:57;;;;;;;4.45;1.60;;;;;;;12.39;46.49;93994.56;5027055;28;20605;-77
2022/09/21 09:22:46;;;;;;;1.60;1.20;;;;;;;12.52;46.06;93993.56;5026592;28;20079;-77
2022/09/21 09:25:21;;;;;;;2.65;1.50;;;;;;;12.68;45.50;94005.31;5027928;28;20427;-78
2022/09/21 09:27:52;;;;;;;1.67;1.30;;;;;;;12.60;45.48;93984.81;5044057;28;20025;-77
2022/09/21 09:30:19;;;;;;;9.30;4.53;;;;;;;12.77;44.96;94011.38;5053878;28;20033;-76
2022/09/21 09:32:50;;;;;;;2.80;2.45;;;;;;;12.52;44.54;93998.91;5051524;28;20023;-77
2022/09/21 09:35:35;;;;;;;4.75;4.35;;;;;;;12.43;45.09;93979.50;5044247;28;20049;-78
2022/09/21 09:38:10;;;;;;;1.63;1.20;;;;;;;12.56;45.36;93994.53;5030671;28;20131;-78
2022/09/21 09:40:45;;;;;;;2.17;1.30;;;;;;;12.58;45.07;93995.00;5027244;28;20025;-78
2022/09/21 09:43:24;;;;;;;;;;;;;;;12.42;43.84;93985.91;5027600;28;20064;-79
2022/09/21 09:46:02;;;;;;;1.20;1.10;;;;;;;12.38;44.64;93964.44;5028700;28;19928;-78
2022/09/21 09:48:34;;;;;;;1.02;0.93;;;;;;;12.44;44.30;93973.06;5058834;28;20021;-77
2022/09/21 09:50:59;;;;;;;1.13;0.90;;;;;;;12.46;43.29;93962.88;5056799;28;20033;-78
2022/09/21 09:53:26;;;;;;;2.55;1.20;;;;;;;12.48;42.89;93973.97;5029011;28;20024;-79
2022/09/21 09:55:54;;;;;;;1.20;1.10;;;;;;;12.57;43.22;93980.06;5024841;28;20530;-78
2022/09/21 09:58:37;;;;;;;1.23;1.02;;;;;;;12.66;44.59;93972.84;5029375;28;20107;-78
2022/09/21 10:01:02;;;;;;;1.30;1.20;;;;;;;12.34;44.36;93920.84;5026627;28;20817;-77
2022/09/21 10:03:28;;;;;;;1.20;0.98;;;;;;;12.38;43.36;93935.09;5028167;28;20033;-79
2022/09/21 10:05:54;;;;;;;0.73;0.70;;;;;;;12.54;43.27;93963.91;5025831;28;20025;-78
2022/09/21 10:08:43;;;;;;;7.40;1.48;;;;;;;12.57;42.43;93958.72;5029447;28;20028;-78
2022/09/21 10:11:10;;;;;;;1.88;1.05;;;;;;;12.55;43.00;93952.94;5028422;28;20061;-79
2022/09/21 10:13:40;;;;;;;1.25;0.98;;;;;;;12.51;43.86;93952.00;5057544;28;20822;-78
2022/09/21 10:16:13;;;;;;;1.20;1.10;;;;;;;12.58;43.87;93954.16;5023053;28;20017;-78
2022/09/21 10:18:38;;;;;;;3.53;1.27;;;;;;;12.67;44.55;93955.72;5021985;28;20025;-79
2022/09/21 10:21:07;;;;;;;0.90;0.90;;;;;;;12.37;43.95;93914.88;5060500;28;20043;-77
2022/09/21 10:23:35;;;;;;;1.00;0.90;;;;;;;12.87;43.41;93954.97;5046823;28;20113;-77
2022/09/21 10:26:12;;;;;;;1.73;1.00;;;;;;;12.89;42.83;93958.13;5027259;28;20036;-78
2022/09/21 10:28:58;;;;;;;1.02;0.93;;;;;;;12.50;42.57;93934.44;5019157;28;20036;-78
2022/09/21 10:31:27;;;;;;;1.10;1.00;;;;;;;12.50;43.00;93952.31;5023048;28;20777;-79
2022/09/21 10:34:13;;;;;;;0.85;0.85;;;;;;;12.49;43.02;93943.53;5026448;28;20049;-78
2022/09/21 10:36:39;;;;;;;1.27;0.80;;;;;;;12.28;43.34;93897.34;5027454;28;20322;-79
2022/09/21 10:39:26;;;;;;;2.53;0.90;;;;;;;12.71;42.94;93940.63;5023182;28;20029;-79
2022/09/21 10:42:05;;;;;;;0.93;0.82;;;;;;;12.75;42.32;93938.09;5027663;28;20056;-78
2022/09/21 10:44:38;;;;;;;2.17;0.90;;;;;;;12.89;41.46;93934.09;5026791;28;20033;-78
2022/09/21 10:47:19;;;;;;;0.70;0.70;;;;;;;12.53;41.07;93893.78;5019087;28;20360;-77
2022/09/21 10:49:57;;;;;;;0.90;0.90;;;;;;;12.83;42.22;93924.69;5024193;28;20026;-78
2022/09/21 10:52:42;;;;;;;1.20;1.10;;;;;;;12.91;41.97;93919.66;5054391;28;20072;-77
2022/09/21 10:55:16;;;;;;;0.85;0.85;;;;;;;13.05;41.75;93920.16;5027384;28;20073;-80
2022/09/21 10:57:43;;;;;;;1.15;0.80;;;;;;;12.79;41.44;93874.97;5030355;28;20049;-78
2022/09/21 11:00:34;;;;;;;1.70;0.90;;;;;;;12.95;41.29;93899.97;5024850;28;20062;-77
2022/09/21 11:03:22;;;;;;;2.60;0.85;;;;;;;13.07;41.04;93923.28;5029130;28;20503;-79
2022/09/21 11:05:50;;;;;;;2.03;1.00;;;;;;;12.84;41.07;93910.25;5029003;28;20025;-79
2022/09/21 11:08:22;;;;;;;2.58;1.10;;;;;;;12.88;41.86;93881.81;5027126;28;20111;-78
2022/09/21 11:11:01;;;;;;;1.17;1.08;;;;;;;13.15;41.98;93919.78;5040669;28;20092;-80
2022/09/21 11:13:42;;;;;;;1.13;1.00;;;;;;;13.25;41.02;93911.38;5058687;28;20029;-79
2022/09/21 11:16:17;;;;;;;1.02;0.90;;;;;;;12.98;41.70;93877.97;5024314;28;20559;-80
2022/09/21 11:18:45;;;;;;;1.00;0.90;;;;;;;13.14;41.48;93910.97;5021163;28;20551;-81
2022/09/21 11:21:19;;;;;;;2.35;0.98;;;;;;;13.26;42.01;93908.34;5024597;28;20160;-78
2022/09/21 11:23:57;;;;;;;0.85;0.80;;;;;;;13.12;40.56;93909.72;5022391;28;20032;-78
2022/09/21 11:26:32;;;;;;;2.70;1.38;;;;;;;13.27;40.25;93909.13;5028382;28;20025;-77
2022/09/21 11:29:16;;;;;;;0.60;0.60;;;;;;;13.29;39.60;93905.06;5033048;28;20064;-78
2022/09/21 11:32:03;;;;;;;0.93;0.90;;;;;;;13.30;39.23;93906.59;5029247;28;20522;-77
2022/09/21 11:34:46;;;;;;;0.60;0.60;;;;;;;13.30;38.06;93903.13;5059222;28;20108;-78
2022/09/21 11:37:19;;;;;;;1.08;0.80;;;;;;;13.15;39.47;93885.81;5042732;28;20029;-77
2022/09/21 11:40:05;;;;;;;8.38;1.20;;;;;;;13.19;40.11;93905.44;5025738;28;20364;-78
2022/09/21 11:42:46;;;;;;;1.48;1.02;;;;;;;13.12;38.35;93920.41;5021586;28;20057;-77
2022/09/21 11:45:33;;;;;;;4.38;1.48;;;;;;;13.06;38.43;93911.03;5026758;28;20095;-78
2022/09/21 11:48:13;;;;;;;1.55;0.98;;;;;;;12.76;39.22;93905.72;5035582;28;20198;-78
2022/09/21 11:50:49;;;;;;;3.33;1.13;;;;;;;12.83;40.02;93903.34;5027879;28;20029;-77
2022/09/21 11:53:52;;;;;;;1.38;0.77;;;;;;;12.88;40.18;93918.38;5033075;28;20056;-79
2022/09/21 11:56:33;;;;;;;1.20;0.90;;;;;;;12.21;40.33;93854.41;5026593;28;20021;-77